sensor_id;sensor_type;location;lat;lon;timestamp;P1;durP1;ratioP1;P2;durP2;ratioP2
52816;SDS011;38687;43.330;21.924;2022-09-14T00:01:11;4.13;;;3.70;;
52816;SDS011;38687;43.330;21.924;2022-09-14T00:03:37;4.38;;;3.97;;
52816;SDS011;38687;43.330;21.924;2022-09-14T00:06:06;5.72;;;4.15;;
52816;SDS011;38687;43.330;21.924;2022-09-14T00:08:32;5.85;;;4.22;;
52816;SDS011;38687;43.330;21.924;2022-09-14T00:11:02;4.15;;;3.75;;
52816;SDS011;38687;43.330;21.924;2022-09-14T00:13:27;4.43;;;4.03;;
52816;SDS011;38687;43.330;21.924;2022-09-14T00:15:52;3.53;;;3.22;;
52816;SDS011;38687;43.330;21.924;2022-09-14T00:18:17;4.85;;;3.28;;
52816;SDS011;38687;43.330;21.924;2022-09-14T00:20:43;4.38;;;3.67;;
52816;SDS011;38687;43.330;21.924;2022-09-14T00:23:08;4.50;;;3.97;;
52816;SDS011;38687;43.330;21.924;2022-09-14T00:25:33;4.88;;;4.03;;
52816;SDS011;38687;43.330;21.924;2022-09-14T00:27:59;4.05;;;3.58;;
52816;SDS011;38687;43.330;21.924;2022-09-14T00:30:24;4.53;;;4.10;;
52816;SDS011;38687;43.330;21.924;2022-09-14T00:32:49;4.15;;;3.85;;
52816;SDS011;38687;43.330;21.924;2022-09-14T00:35:15;4.68;;;3.75;;
52816;SDS011;38687;43.330;21.924;2022-09-14T00:37:41;3.95;;;3.60;;
52816;SDS011;38687;43.330;21.924;2022-09-14T00:40:06;4.10;;;3.70;;
52816;SDS011;38687;43.330;21.924;2022-09-14T00:42:32;4.75;;;3.78;;
52816;SDS011;38687;43.330;21.924;2022-09-14T00:44:58;4.30;;;3.85;;
52816;SDS011;38687;43.330;21.924;2022-09-14T00:47:24;4.90;;;3.95;;
52816;SDS011;38687;43.330;21.924;2022-09-14T00:49:50;4.47;;;4.07;;
52816;SDS011;38687;43.330;21.924;2022-09-14T00:52:20;7.35;;;4.07;;
52816;SDS011;38687;43.330;21.924;2022-09-14T00:57:11;4.40;;;3.92;;
52816;SDS011;38687;43.330;21.924;2022-09-14T00:59:37;5.00;;;4.50;;
52816;SDS011;38687;43.330;21.924;2022-09-14T01:02:03;4.72;;;4.18;;
52816;SDS011;38687;43.330;21.924;2022-09-14T01:04:29;4.50;;;4.10;;
52816;SDS011;38687;43.330;21.924;2022-09-14T01:07:04;5.32;;;3.95;;
52816;SDS011;38687;43.330;21.924;2022-09-14T01:09:33;4.00;;;3.60;;
52816;SDS011;38687;43.330;21.924;2022-09-14T01:12:05;4.13;;;3.72;;
52816;SDS011;38687;43.330;21.924;2022-09-14T01:17:14;3.83;;;3.38;;
52816;SDS011;38687;43.330;21.924;2022-09-14T01:22:20;3.95;;;3.20;;
52816;SDS011;38687;43.330;21.924;2022-09-14T01:24:48;4.18;;;3.78;;
52816;SDS011;38687;43.330;21.924;2022-09-14T01:27:36;4.20;;;3.75;;
52816;SDS011;38687;43.330;21.924;2022-09-14T01:35:04;3.65;;;3.35;;
52816;SDS011;38687;43.330;21.924;2022-09-14T01:40:31;4.75;;;4.07;;
52816;SDS011;38687;43.330;21.924;2022-09-14T01:42:59;4.13;;;3.83;;
52816;SDS011;38687;43.330;21.924;2022-09-14T01:45:26;3.75;;;3.45;;
52816;SDS011;38687;43.330;21.924;2022-09-14T01:48:01;4.72;;;4.13;;
52816;SDS011;38687;43.330;21.924;2022-09-14T01:50:43;4.90;;;4.07;;
52816;SDS011;38687;43.330;21.924;2022-09-14T01:53:15;4.60;;;4.07;;
52816;SDS011;38687;43.330;21.924;2022-09-14T01:55:46;6.00;;;4.38;;
52816;SDS011;38687;43.330;21.924;2022-09-14T01:58:20;4.45;;;4.05;;
52816;SDS011;38687;43.330;21.924;2022-09-14T02:00:49;4.75;;;3.60;;
52816;SDS011;38687;43.330;21.924;2022-09-14T02:03:18;5.05;;;3.95;;
52816;SDS011;38687;43.330;21.924;2022-09-14T02:08:43;4.40;;;3.95;;
52816;SDS011;38687;43.330;21.924;2022-09-14T02:11:08;4.80;;;4.40;;
52816;SDS011;38687;43.330;21.924;2022-09-14T02:13:34;3.95;;;3.55;;
52816;SDS011;38687;43.330;21.924;2022-09-14T02:15:59;4.32;;;3.55;;
52816;SDS011;38687;43.330;21.924;2022-09-14T02:18:24;4.93;;;4.10;;
52816;SDS011;38687;43.330;21.924;2022-09-14T02:21:01;4.05;;;3.60;;
52816;SDS011;38687;43.330;21.924;2022-09-14T02:23:28;4.38;;;3.97;;
52816;SDS011;38687;43.330;21.924;2022-09-14T02:25:53;4.35;;;3.95;;
52816;SDS011;38687;43.330;21.924;2022-09-14T02:28:18;3.95;;;3.58;;
52816;SDS011;38687;43.330;21.924;2022-09-14T02:35:47;4.43;;;4.03;;
52816;SDS011;38687;43.330;21.924;2022-09-14T02:43:46;3.92;;;3.55;;
52816;SDS011;38687;43.330;21.924;2022-09-14T02:48:59;5.28;;;4.43;;
52816;SDS011;38687;43.330;21.924;2022-09-14T02:53:53;4.85;;;4.38;;
52816;SDS011;38687;43.330;21.924;2022-09-14T02:56:20;5.10;;;4.07;;
52816;SDS011;38687;43.330;21.924;2022-09-14T02:58:46;4.38;;;3.97;;
52816;SDS011;38687;43.330;21.924;2022-09-14T03:01:12;6.28;;;4.75;;
52816;SDS011;38687;43.330;21.924;2022-09-14T03:03:38;4.07;;;3.67;;
52816;SDS011;38687;43.330;21.924;2022-09-14T03:06:03;4.10;;;3.65;;
52816;SDS011;38687;43.330;21.924;2022-09-14T03:08:29;4.60;;;4.07;;
52816;SDS011;38687;43.330;21.924;2022-09-14T03:10:55;3.70;;;3.40;;
52816;SDS011;38687;43.330;21.924;2022-09-14T03:13:20;4.28;;;3.55;;
52816;SDS011;38687;43.330;21.924;2022-09-14T03:15:45;5.53;;;3.85;;
52816;SDS011;38687;43.330;21.924;2022-09-14T03:18:11;4.63;;;4.00;;
52816;SDS011;38687;43.330;21.924;2022-09-14T03:20:36;3.97;;;3.60;;
52816;SDS011;38687;43.330;21.924;2022-09-14T03:23:02;4.70;;;4.00;;
52816;SDS011;38687;43.330;21.924;2022-09-14T03:25:27;6.20;;;3.90;;
52816;SDS011;38687;43.330;21.924;2022-09-14T03:27:54;4.57;;;4.05;;
52816;SDS011;38687;43.330;21.924;2022-09-14T03:30:20;5.82;;;3.95;;
52816;SDS011;38687;43.330;21.924;2022-09-14T03:32:45;3.85;;;3.38;;
52816;SDS011;38687;43.330;21.924;2022-09-14T03:35:11;4.95;;;4.20;;
52816;SDS011;38687;43.330;21.924;2022-09-14T03:37:37;4.97;;;4.40;;
52816;SDS011;38687;43.330;21.924;2022-09-14T03:40:03;4.90;;;4.07;;
52816;SDS011;38687;43.330;21.924;2022-09-14T03:42:28;4.35;;;3.95;;
52816;SDS011;38687;43.330;21.924;2022-09-14T03:44:53;6.03;;;4.68;;
52816;SDS011;38687;43.330;21.924;2022-09-14T03:47:19;4.10;;;3.80;;
52816;SDS011;38687;43.330;21.924;2022-09-14T03:49:44;5.20;;;4.28;;
52816;SDS011;38687;43.330;21.924;2022-09-14T03:52:09;5.32;;;4.50;;
52816;SDS011;38687;43.330;21.924;2022-09-14T03:54:35;5.97;;;4.45;;
52816;SDS011;38687;43.330;21.924;2022-09-14T03:57:00;4.82;;;4.28;;
52816;SDS011;38687;43.330;21.924;2022-09-14T03:59:25;5.18;;;4.32;;
52816;SDS011;38687;43.330;21.924;2022-09-14T04:01:50;5.20;;;4.70;;
52816;SDS011;38687;43.330;21.924;2022-09-14T04:04:16;5.47;;;4.57;;
52816;SDS011;38687;43.330;21.924;2022-09-14T04:06:44;6.32;;;5.13;;
52816;SDS011;38687;43.330;21.924;2022-09-14T04:09:12;5.65;;;4.35;;
52816;SDS011;38687;43.330;21.924;2022-09-14T04:11:38;8.77;;;4.68;;
52816;SDS011;38687;43.330;21.924;2022-09-14T04:14:03;6.15;;;4.85;;
52816;SDS011;38687;43.330;21.924;2022-09-14T04:16:29;5.50;;;4.95;;
52816;SDS011;38687;43.330;21.924;2022-09-14T04:18:55;9.23;;;6.95;;
52816;SDS011;38687;43.330;21.924;2022-09-14T04:21:21;11.70;;;6.88;;
52816;SDS011;38687;43.330;21.924;2022-09-14T04:23:47;9.55;;;5.70;;
52816;SDS011;38687;43.330;21.924;2022-09-14T04:26:14;9.07;;;5.70;;
52816;SDS011;38687;43.330;21.924;2022-09-14T04:28:40;8.15;;;5.85;;
52816;SDS011;38687;43.330;21.924;2022-09-14T04:31:09;7.40;;;5.82;;
52816;SDS011;38687;43.330;21.924;2022-09-14T04:33:35;7.18;;;5.10;;
52816;SDS011;38687;43.330;21.924;2022-09-14T04:36:08;6.22;;;4.53;;
52816;SDS011;38687;43.330;21.924;2022-09-14T04:38:34;5.53;;;4.68;;
52816;SDS011;38687;43.330;21.924;2022-09-14T04:41:09;7.38;;;4.15;;
52816;SDS011;38687;43.330;21.924;2022-09-14T04:43:35;6.55;;;4.60;;
52816;SDS011;38687;43.330;21.924;2022-09-14T04:46:01;4.95;;;3.78;;
52816;SDS011;38687;43.330;21.924;2022-09-14T04:48:30;4.60;;;4.20;;
52816;SDS011;38687;43.330;21.924;2022-09-14T04:51:05;6.07;;;3.45;;
52816;SDS011;38687;43.330;21.924;2022-09-14T04:53:32;4.53;;;4.13;;
52816;SDS011;38687;43.330;21.924;2022-09-14T04:55:58;4.97;;;3.97;;
52816;SDS011;38687;43.330;21.924;2022-09-14T04:58:23;4.43;;;4.00;;
52816;SDS011;38687;43.330;21.924;2022-09-14T05:00:48;6.07;;;4.03;;
52816;SDS011;38687;43.330;21.924;2022-09-14T05:03:14;4.75;;;4.10;;
52816;SDS011;38687;43.330;21.924;2022-09-14T05:05:39;3.38;;;3.08;;
52816;SDS011;38687;43.330;21.924;2022-09-14T05:08:04;5.70;;;3.88;;
52816;SDS011;38687;43.330;21.924;2022-09-14T05:10:29;5.40;;;4.85;;
52816;SDS011;38687;43.330;21.924;2022-09-14T05:12:55;6.75;;;4.65;;
52816;SDS011;38687;43.330;21.924;2022-09-14T05:15:20;6.60;;;4.70;;
52816;SDS011;38687;43.330;21.924;2022-09-14T05:17:45;7.55;;;5.97;;
52816;SDS011;38687;43.330;21.924;2022-09-14T05:20:11;6.60;;;4.88;;
52816;SDS011;38687;43.330;21.924;2022-09-14T05:22:36;7.75;;;4.82;;
52816;SDS011;38687;43.330;21.924;2022-09-14T05:25:01;6.43;;;4.63;;
52816;SDS011;38687;43.330;21.924;2022-09-14T05:27:27;4.85;;;4.45;;
52816;SDS011;38687;43.330;21.924;2022-09-14T05:29:52;7.80;;;4.60;;
52816;SDS011;38687;43.330;21.924;2022-09-14T05:32:18;5.07;;;4.57;;
52816;SDS011;38687;43.330;21.924;2022-09-14T05:34:46;7.18;;;4.63;;
52816;SDS011;38687;43.330;21.924;2022-09-14T05:37:11;6.22;;;4.97;;
52816;SDS011;38687;43.330;21.924;2022-09-14T05:39:37;5.40;;;4.80;;
52816;SDS011;38687;43.330;21.924;2022-09-14T05:42:02;6.63;;;5.25;;
52816;SDS011;38687;43.330;21.924;2022-09-14T05:44:27;7.68;;;4.05;;
52816;SDS011;38687;43.330;21.924;2022-09-14T05:46:53;5.32;;;3.83;;
52816;SDS011;38687;43.330;21.924;2022-09-14T05:49:18;4.80;;;4.25;;
52816;SDS011;38687;43.330;21.924;2022-09-14T05:51:43;5.32;;;4.38;;
52816;SDS011;38687;43.330;21.924;2022-09-14T05:54:08;4.70;;;4.30;;
52816;SDS011;38687;43.330;21.924;2022-09-14T05:56:35;5.25;;;4.05;;
52816;SDS011;38687;43.330;21.924;2022-09-14T05:59:01;6.60;;;4.15;;
52816;SDS011;38687;43.330;21.924;2022-09-14T06:01:30;6.93;;;4.93;;
52816;SDS011;38687;43.330;21.924;2022-09-14T06:03:57;6.32;;;4.38;;
52816;SDS011;38687;43.330;21.924;2022-09-14T06:06:22;8.48;;;5.57;;
52816;SDS011;38687;43.330;21.924;2022-09-14T06:08:49;7.57;;;3.55;;
52816;SDS011;38687;43.330;21.924;2022-09-14T06:11:17;5.65;;;3.55;;
52816;SDS011;38687;43.330;21.924;2022-09-14T06:13:43;4.38;;;3.88;;
52816;SDS011;38687;43.330;21.924;2022-09-14T06:16:12;5.10;;;3.47;;
52816;SDS011;38687;43.330;21.924;2022-09-14T06:18:38;3.88;;;3.50;;
52816;SDS011;38687;43.330;21.924;2022-09-14T06:21:04;3.78;;;3.40;;
52816;SDS011;38687;43.330;21.924;2022-09-14T06:23:30;4.80;;;3.65;;
52816;SDS011;38687;43.330;21.924;2022-09-14T06:25:55;4.45;;;3.72;;
52816;SDS011;38687;43.330;21.924;2022-09-14T06:28:21;9.10;;;3.78;;
52816;SDS011;38687;43.330;21.924;2022-09-14T06:30:47;6.78;;;4.18;;
52816;SDS011;38687;43.330;21.924;2022-09-14T06:33:13;4.95;;;3.58;;
52816;SDS011;38687;43.330;21.924;2022-09-14T06:35:38;4.75;;;3.45;;
52816;SDS011;38687;43.330;21.924;2022-09-14T06:38:06;5.32;;;3.88;;
52816;SDS011;38687;43.330;21.924;2022-09-14T06:40:31;3.47;;;3.03;;
52816;SDS011;38687;43.330;21.924;2022-09-14T06:42:56;3.35;;;3.05;;
52816;SDS011;38687;43.330;21.924;2022-09-14T06:45:26;5.78;;;4.07;;
52816;SDS011;38687;43.330;21.924;2022-09-14T06:47:51;3.78;;;3.45;;
52816;SDS011;38687;43.330;21.924;2022-09-14T06:50:16;3.60;;;3.28;;
52816;SDS011;38687;43.330;21.924;2022-09-14T06:52:42;10.35;;;5.70;;
52816;SDS011;38687;43.330;21.924;2022-09-14T06:55:07;8.00;;;5.18;;
52816;SDS011;38687;43.330;21.924;2022-09-14T06:57:32;5.22;;;4.20;;
52816;SDS011;38687;43.330;21.924;2022-09-14T06:59:57;5.53;;;3.47;;
52816;SDS011;38687;43.330;21.924;2022-09-14T07:02:23;6.72;;;3.50;;
52816;SDS011;38687;43.330;21.924;2022-09-14T07:04:48;4.45;;;4.05;;
52816;SDS011;38687;43.330;21.924;2022-09-14T07:07:14;5.70;;;3.17;;
52816;SDS011;38687;43.330;21.924;2022-09-14T07:09:39;5.55;;;3.20;;
52816;SDS011;38687;43.330;21.924;2022-09-14T07:12:05;7.45;;;3.85;;
52816;SDS011;38687;43.330;21.924;2022-09-14T07:14:30;3.28;;;2.97;;
52816;SDS011;38687;43.330;21.924;2022-09-14T07:16:55;4.78;;;3.00;;
52816;SDS011;38687;43.330;21.924;2022-09-14T07:19:21;4.07;;;3.13;;
52816;SDS011;38687;43.330;21.924;2022-09-14T07:21:46;5.25;;;3.08;;
52816;SDS011;38687;43.330;21.924;2022-09-14T07:24:12;4.28;;;3.28;;
52816;SDS011;38687;43.330;21.924;2022-09-14T07:26:39;6.88;;;4.43;;
52816;SDS011;38687;43.330;21.924;2022-09-14T07:29:08;6.95;;;4.35;;
52816;SDS011;38687;43.330;21.924;2022-09-14T07:31:35;7.70;;;4.93;;
52816;SDS011;38687;43.330;21.924;2022-09-14T07:34:01;3.83;;;3.20;;
52816;SDS011;38687;43.330;21.924;2022-09-14T07:36:27;5.25;;;3.70;;
52816;SDS011;38687;43.330;21.924;2022-09-14T07:38:53;4.65;;;3.13;;
52816;SDS011;38687;43.330;21.924;2022-09-14T07:41:22;4.25;;;3.58;;
52816;SDS011;38687;43.330;21.924;2022-09-14T07:43:51;5.40;;;4.13;;
52816;SDS011;38687;43.330;21.924;2022-09-14T07:46:16;4.43;;;3.40;;
52816;SDS011;38687;43.330;21.924;2022-09-14T07:48:42;3.88;;;3.42;;
52816;SDS011;38687;43.330;21.924;2022-09-14T07:51:08;3.28;;;2.60;;
52816;SDS011;38687;43.330;21.924;2022-09-14T07:53:38;4.20;;;3.40;;
52816;SDS011;38687;43.330;21.924;2022-09-14T07:56:04;5.53;;;3.45;;
52816;SDS011;38687;43.330;21.924;2022-09-14T07:58:30;3.22;;;2.92;;
52816;SDS011;38687;43.330;21.924;2022-09-14T08:01:05;5.03;;;3.05;;
52816;SDS011;38687;43.330;21.924;2022-09-14T08:03:32;3.58;;;3.28;;
52816;SDS011;38687;43.330;21.924;2022-09-14T08:05:58;5.18;;;3.00;;
52816;SDS011;38687;43.330;21.924;2022-09-14T08:08:26;4.03;;;3.63;;
52816;SDS011;38687;43.330;21.924;2022-09-14T08:10:52;6.10;;;3.33;;
52816;SDS011;38687;43.330;21.924;2022-09-14T08:13:17;4.25;;;3.70;;
52816;SDS011;38687;43.330;21.924;2022-09-14T08:15:42;2.75;;;2.28;;
52816;SDS011;38687;43.330;21.924;2022-09-14T08:18:07;4.65;;;2.90;;
52816;SDS011;38687;43.330;21.924;2022-09-14T08:20:35;2.60;;;2.40;;
52816;SDS011;38687;43.330;21.924;2022-09-14T08:23:00;3.10;;;2.80;;
52816;SDS011;38687;43.330;21.924;2022-09-14T08:25:25;4.97;;;3.47;;
52816;SDS011;38687;43.330;21.924;2022-09-14T08:27:51;5.85;;;4.22;;
52816;SDS011;38687;43.330;21.924;2022-09-14T08:30:16;3.35;;;3.05;;
52816;SDS011;38687;43.330;21.924;2022-09-14T08:32:41;6.45;;;5.10;;
52816;SDS011;38687;43.330;21.924;2022-09-14T08:35:07;4.43;;;3.78;;
52816;SDS011;38687;43.330;21.924;2022-09-14T08:37:32;3.72;;;2.75;;
52816;SDS011;38687;43.330;21.924;2022-09-14T08:39:58;4.05;;;2.83;;
52816;SDS011;38687;43.330;21.924;2022-09-14T08:42:23;3.38;;;2.65;;
52816;SDS011;38687;43.330;21.924;2022-09-14T08:44:57;3.28;;;2.95;;
52816;SDS011;38687;43.330;21.924;2022-09-14T08:47:27;4.63;;;2.80;;
52816;SDS011;38687;43.330;21.924;2022-09-14T08:49:55;4.57;;;2.67;;
52816;SDS011;38687;43.330;21.924;2022-09-14T08:52:26;3.08;;;2.67;;
52816;SDS011;38687;43.330;21.924;2022-09-14T08:54:54;3.03;;;2.72;;
52816;SDS011;38687;43.330;21.924;2022-09-14T08:57:29;4.50;;;3.00;;
52816;SDS011;38687;43.330;21.924;2022-09-14T09:09:43;5.43;;;3.65;;
52816;SDS011;38687;43.330;21.924;2022-09-14T09:12:16;4.93;;;3.30;;
52816;SDS011;38687;43.330;21.924;2022-09-14T09:14:43;3.55;;;3.25;;
52816;SDS011;38687;43.330;21.924;2022-09-14T09:17:17;4.82;;;3.00;;
52816;SDS011;38687;43.330;21.924;2022-09-14T09:22:19;4.40;;;3.67;;
52816;SDS011;38687;43.330;21.924;2022-09-14T09:24:46;5.40;;;3.88;;
52816;SDS011;38687;43.330;21.924;2022-09-14T09:27:13;5.35;;;3.80;;
52816;SDS011;38687;43.330;21.924;2022-09-14T09:29:39;5.63;;;4.13;;
52816;SDS011;38687;43.330;21.924;2022-09-14T09:32:06;5.82;;;3.72;;
52816;SDS011;38687;43.330;21.924;2022-09-14T09:34:31;6.28;;;4.15;;
52816;SDS011;38687;43.330;21.924;2022-09-14T09:36:57;6.93;;;3.50;;
52816;SDS011;38687;43.330;21.924;2022-09-14T09:39:25;4.10;;;3.20;;
52816;SDS011;38687;43.330;21.924;2022-09-14T09:44:18;4.55;;;3.78;;
52816;SDS011;38687;43.330;21.924;2022-09-14T09:47:02;4.30;;;3.30;;
52816;SDS011;38687;43.330;21.924;2022-09-14T09:49:31;6.65;;;3.05;;
52816;SDS011;38687;43.330;21.924;2022-09-14T09:52:07;4.35;;;3.33;;
52816;SDS011;38687;43.330;21.924;2022-09-14T09:54:32;6.38;;;3.08;;
52816;SDS011;38687;43.330;21.924;2022-09-14T09:56:59;4.18;;;3.30;;
52816;SDS011;38687;43.330;21.924;2022-09-14T10:01:54;5.28;;;2.75;;
52816;SDS011;38687;43.330;21.924;2022-09-14T10:04:20;5.82;;;2.80;;
52816;SDS011;38687;43.330;21.924;2022-09-14T10:06:47;4.68;;;2.78;;
52816;SDS011;38687;43.330;21.924;2022-09-14T10:09:14;4.53;;;3.35;;
52816;SDS011;38687;43.330;21.924;2022-09-14T10:11:40;4.22;;;3.00;;
52816;SDS011;38687;43.330;21.924;2022-09-14T10:14:17;4.38;;;2.60;;
52816;SDS011;38687;43.330;21.924;2022-09-14T10:16:44;4.07;;;2.58;;
52816;SDS011;38687;43.330;21.924;2022-09-14T10:19:27;6.07;;;2.65;;
52816;SDS011;38687;43.330;21.924;2022-09-14T10:24:38;3.90;;;2.42;;
52816;SDS011;38687;43.330;21.924;2022-09-14T10:27:21;5.85;;;3.30;;
52816;SDS011;38687;43.330;21.924;2022-09-14T10:29:49;4.82;;;3.30;;
52816;SDS011;38687;43.330;21.924;2022-09-14T10:32:19;6.68;;;3.00;;
52816;SDS011;38687;43.330;21.924;2022-09-14T10:34:47;4.97;;;2.65;;
52816;SDS011;38687;43.330;21.924;2022-09-14T10:37:16;5.35;;;2.40;;
52816;SDS011;38687;43.330;21.924;2022-09-14T10:39:48;4.05;;;2.60;;
52816;SDS011;38687;43.330;21.924;2022-09-14T10:42:20;5.03;;;2.55;;
52816;SDS011;38687;43.330;21.924;2022-09-14T10:57:33;6.00;;;2.45;;
52816;SDS011;38687;43.330;21.924;2022-09-14T11:07:37;2.80;;;2.25;;
52816;SDS011;38687;43.330;21.924;2022-09-14T11:17:59;3.33;;;2.10;;
52816;SDS011;38687;43.330;21.924;2022-09-14T11:25:25;2.70;;;1.50;;
52816;SDS011;38687;43.330;21.924;2022-09-14T11:27:56;3.35;;;1.70;;
52816;SDS011;38687;43.330;21.924;2022-09-14T11:30:26;3.47;;;1.45;;
52816;SDS011;38687;43.330;21.924;2022-09-14T11:32:55;2.78;;;1.70;;
52816;SDS011;38687;43.330;21.924;2022-09-14T11:35:33;2.70;;;1.52;;
52816;SDS011;38687;43.330;21.924;2022-09-14T11:38:00;2.75;;;1.75;;
52816;SDS011;38687;43.330;21.924;2022-09-14T11:40:32;2.10;;;1.42;;
52816;SDS011;38687;43.330;21.924;2022-09-14T11:48:07;2.38;;;1.40;;
52816;SDS011;38687;43.330;21.924;2022-09-14T11:50:34;1.17;;;0.95;;
52816;SDS011;38687;43.330;21.924;2022-09-14T11:53:10;2.10;;;1.50;;
52816;SDS011;38687;43.330;21.924;2022-09-14T11:55:36;2.13;;;1.38;;
52816;SDS011;38687;43.330;21.924;2022-09-14T11:58:06;2.85;;;1.85;;
52816;SDS011;38687;43.330;21.924;2022-09-14T12:00:43;1.00;;;0.90;;
52816;SDS011;38687;43.330;21.924;2022-09-14T12:03:13;1.55;;;1.10;;
52816;SDS011;38687;43.330;21.924;2022-09-14T12:05:39;2.22;;;1.20;;
52816;SDS011;38687;43.330;21.924;2022-09-14T12:08:49;15.55;;;7.93;;
52816;SDS011;38687;43.330;21.924;2022-09-14T12:13:23;4.22;;;2.13;;
52816;SDS011;38687;43.330;21.924;2022-09-14T12:15:50;3.22;;;1.40;;
52816;SDS011;38687;43.330;21.924;2022-09-14T12:18:24;1.95;;;1.23;;
52816;SDS011;38687;43.330;21.924;2022-09-14T12:21:01;1.15;;;1.05;;
52816;SDS011;38687;43.330;21.924;2022-09-14T12:23:31;2.28;;;1.20;;
52816;SDS011;38687;43.330;21.924;2022-09-14T12:35:59;2.67;;;1.23;;
52816;SDS011;38687;43.330;21.924;2022-09-14T12:40:53;3.13;;;1.90;;
52816;SDS011;38687;43.330;21.924;2022-09-14T12:45:59;2.08;;;1.10;;
52816;SDS011;38687;43.330;21.924;2022-09-14T12:51:09;2.00;;;1.23;;
52816;SDS011;38687;43.330;21.924;2022-09-14T12:53:36;2.30;;;1.67;;
52816;SDS011;38687;43.330;21.924;2022-09-14T12:56:03;3.05;;;1.65;;
52816;SDS011;38687;43.330;21.924;2022-09-14T12:58:41;3.08;;;1.08;;
52816;SDS011;38687;43.330;21.924;2022-09-14T13:03:47;1.77;;;0.80;;
52816;SDS011;38687;43.330;21.924;2022-09-14T13:06:14;3.03;;;1.10;;
52816;SDS011;38687;43.330;21.924;2022-09-14T13:08:44;2.90;;;1.23;;
52816;SDS011;38687;43.330;21.924;2022-09-14T13:11:09;4.93;;;1.20;;
52816;SDS011;38687;43.330;21.924;2022-09-14T13:13:41;4.28;;;1.88;;
52816;SDS011;38687;43.330;21.924;2022-09-14T13:16:07;2.13;;;1.40;;
52816;SDS011;38687;43.330;21.924;2022-09-14T13:18:33;2.70;;;1.30;;
52816;SDS011;38687;43.330;21.924;2022-09-14T13:21:00;2.05;;;1.02;;
52816;SDS011;38687;43.330;21.924;2022-09-14T13:23:30;1.17;;;1.05;;
52816;SDS011;38687;43.330;21.924;2022-09-14T13:25:57;2.00;;;1.48;;
52816;SDS011;38687;43.330;21.924;2022-09-14T13:28:24;1.25;;;1.10;;
52816;SDS011;38687;43.330;21.924;2022-09-14T13:30:55;2.97;;;1.02;;
52816;SDS011;38687;43.330;21.924;2022-09-14T13:33:21;1.67;;;1.00;;
52816;SDS011;38687;43.330;21.924;2022-09-14T13:35:48;1.50;;;1.10;;
52816;SDS011;38687;43.330;21.924;2022-09-14T13:38:22;2.17;;;1.10;;
52816;SDS011;38687;43.330;21.924;2022-09-14T13:40:48;2.72;;;1.30;;
52816;SDS011;38687;43.330;21.924;2022-09-14T13:43:17;1.50;;;1.30;;
52816;SDS011;38687;43.330;21.924;2022-09-14T13:45:43;1.65;;;1.00;;
52816;SDS011;38687;43.330;21.924;2022-09-14T13:48:09;2.75;;;1.40;;
52816;SDS011;38687;43.330;21.924;2022-09-14T13:50:37;2.88;;;1.17;;
52816;SDS011;38687;43.330;21.924;2022-09-14T13:53:02;1.27;;;1.00;;
52816;SDS011;38687;43.330;21.924;2022-09-14T14:03:23;2.15;;;1.35;;
52816;SDS011;38687;43.330;21.924;2022-09-14T14:05:49;2.80;;;1.20;;
52816;SDS011;38687;43.330;21.924;2022-09-14T14:08:29;8.60;;;1.63;;
52816;SDS011;38687;43.330;21.924;2022-09-14T14:10:55;2.15;;;1.42;;
52816;SDS011;38687;43.330;21.924;2022-09-14T14:13:28;3.65;;;1.90;;
52816;SDS011;38687;43.330;21.924;2022-09-14T14:15:53;2.88;;;1.52;;
52816;SDS011;38687;43.330;21.924;2022-09-14T14:21:09;3.47;;;2.40;;
52816;SDS011;38687;43.330;21.924;2022-09-14T14:23:36;3.38;;;1.85;;
52816;SDS011;38687;43.330;21.924;2022-09-14T14:26:06;3.08;;;1.52;;
52816;SDS011;38687;43.330;21.924;2022-09-14T14:28:32;2.70;;;1.33;;
52816;SDS011;38687;43.330;21.924;2022-09-14T14:30:58;1.83;;;1.10;;
52816;SDS011;38687;43.330;21.924;2022-09-14T14:33:23;2.90;;;1.20;;
52816;SDS011;38687;43.330;21.924;2022-09-14T14:35:49;1.60;;;0.98;;
52816;SDS011;38687;43.330;21.924;2022-09-14T14:38:19;2.35;;;1.20;;
52816;SDS011;38687;43.330;21.924;2022-09-14T14:40:44;2.80;;;1.58;;
52816;SDS011;38687;43.330;21.924;2022-09-14T14:43:14;1.70;;;1.50;;
52816;SDS011;38687;43.330;21.924;2022-09-14T14:45:41;2.25;;;1.30;;
52816;SDS011;38687;43.330;21.924;2022-09-14T14:48:08;1.75;;;1.30;;
52816;SDS011;38687;43.330;21.924;2022-09-14T14:50:34;4.45;;;1.80;;
52816;SDS011;38687;43.330;21.924;2022-09-14T14:53:00;3.05;;;1.30;;
52816;SDS011;38687;43.330;21.924;2022-09-14T14:55:26;1.85;;;1.55;;
52816;SDS011;38687;43.330;21.924;2022-09-14T14:57:55;3.90;;;1.55;;
52816;SDS011;38687;43.330;21.924;2022-09-14T15:00:22;2.00;;;1.35;;
52816;SDS011;38687;43.330;21.924;2022-09-14T15:02:48;2.33;;;1.38;;
52816;SDS011;38687;43.330;21.924;2022-09-14T15:05:15;2.03;;;1.58;;
52816;SDS011;38687;43.330;21.924;2022-09-14T15:07:40;2.22;;;1.40;;
52816;SDS011;38687;43.330;21.924;2022-09-14T15:10:06;1.63;;;1.52;;
52816;SDS011;38687;43.330;21.924;2022-09-14T15:12:32;1.80;;;1.35;;
52816;SDS011;38687;43.330;21.924;2022-09-14T15:14:57;2.47;;;1.40;;
52816;SDS011;38687;43.330;21.924;2022-09-14T15:17:22;1.50;;;1.40;;
52816;SDS011;38687;43.330;21.924;2022-09-14T15:19:48;2.00;;;1.30;;
52816;SDS011;38687;43.330;21.924;2022-09-14T15:22:13;1.83;;;1.20;;
52816;SDS011;38687;43.330;21.924;2022-09-14T15:24:39;2.00;;;1.40;;
52816;SDS011;38687;43.330;21.924;2022-09-14T15:27:04;1.40;;;1.30;;
52816;SDS011;38687;43.330;21.924;2022-09-14T15:29:29;2.05;;;1.40;;
52816;SDS011;38687;43.330;21.924;2022-09-14T15:31:55;3.33;;;1.70;;
52816;SDS011;38687;43.330;21.924;2022-09-14T15:34:20;1.25;;;1.10;;
52816;SDS011;38687;43.330;21.924;2022-09-14T15:36:54;1.33;;;1.20;;
52816;SDS011;38687;43.330;21.924;2022-09-14T15:39:25;1.60;;;1.20;;
52816;SDS011;38687;43.330;21.924;2022-09-14T15:41:50;2.75;;;1.50;;
52816;SDS011;38687;43.330;21.924;2022-09-14T15:44:16;1.42;;;1.10;;
52816;SDS011;38687;43.330;21.924;2022-09-14T15:46:41;1.20;;;1.08;;
52816;SDS011;38687;43.330;21.924;2022-09-14T15:49:10;2.33;;;1.42;;
52816;SDS011;38687;43.330;21.924;2022-09-14T15:51:36;2.10;;;1.90;;
52816;SDS011;38687;43.330;21.924;2022-09-14T15:54:02;3.92;;;1.55;;
52816;SDS011;38687;43.330;21.924;2022-09-14T15:56:27;1.38;;;0.98;;
52816;SDS011;38687;43.330;21.924;2022-09-14T15:58:55;3.25;;;1.70;;
52816;SDS011;38687;43.330;21.924;2022-09-14T16:01:21;4.60;;;1.45;;
52816;SDS011;38687;43.330;21.924;2022-09-14T16:03:46;1.97;;;1.40;;
52816;SDS011;38687;43.330;21.924;2022-09-14T16:06:16;1.52;;;1.40;;
52816;SDS011;38687;43.330;21.924;2022-09-14T16:08:41;6.28;;;2.33;;
52816;SDS011;38687;43.330;21.924;2022-09-14T16:11:07;2.42;;;1.83;;
52816;SDS011;38687;43.330;21.924;2022-09-14T16:13:33;2.53;;;2.00;;
52816;SDS011;38687;43.330;21.924;2022-09-14T16:16:05;3.35;;;1.48;;
52816;SDS011;38687;43.330;21.924;2022-09-14T16:18:31;5.47;;;2.40;;
52816;SDS011;38687;43.330;21.924;2022-09-14T16:21:02;7.03;;;4.30;;
52816;SDS011;38687;43.330;21.924;2022-09-14T16:23:27;6.90;;;3.10;;
52816;SDS011;38687;43.330;21.924;2022-09-14T16:25:52;6.30;;;3.30;;
52816;SDS011;38687;43.330;21.924;2022-09-14T16:28:18;8.48;;;3.70;;
52816;SDS011;38687;43.330;21.924;2022-09-14T16:30:43;5.78;;;2.33;;
52816;SDS011;38687;43.330;21.924;2022-09-14T16:33:09;2.80;;;1.67;;
52816;SDS011;38687;43.330;21.924;2022-09-14T16:35:34;4.80;;;2.05;;
52816;SDS011;38687;43.330;21.924;2022-09-14T16:38:00;5.90;;;4.00;;
52816;SDS011;38687;43.330;21.924;2022-09-14T16:40:25;8.05;;;5.15;;